sensor_id;sensor_type;location;lat;lon;timestamp;pressure;altitude;pressure_sealevel;temperature;humidity
47883;BME280;37739;50.350;7.578;2023-03-04T00:01:45;100607.03;;;1.28;76.02
47883;BME280;37739;50.350;7.578;2023-03-04T00:04:15;100609.72;;;1.30;76.47
47883;BME280;37739;50.350;7.578;2023-03-04T00:06:40;100601.97;;;1.28;76.53
47883;BME280;37739;50.350;7.578;2023-03-04T00:09:10;100607.31;;;1.31;77.31
47883;BME280;37739;50.350;7.578;2023-03-04T00:11:38;100608.94;;;1.31;76.79
47883;BME280;37739;50.350;7.578;2023-03-04T00:14:03;100604.66;;;1.30;76.58
47883;BME280;37739;50.350;7.578;2023-03-04T00:16:31;100603.78;;;1.29;76.59
47883;BME280;37739;50.350;7.578;2023-03-04T00:18:56;100600.34;;;1.29;76.83
47883;BME280;37739;50.350;7.578;2023-03-04T00:21:29;100606.41;;;1.31;76.24
47883;BME280;37739;50.350;7.578;2023-03-04T00:23:54;100598.81;;;1.31;76.74
47883;BME280;37739;50.350;7.578;2023-03-04T00:26:22;100602.75;;;1.27;76.61
47883;BME280;37739;50.350;7.578;2023-03-04T00:28:47;100593.91;;;1.32;76.36
47883;BME280;37739;50.350;7.578;2023-03-04T00:31:17;100589.88;;;1.34;76.41
47883;BME280;37739;50.350;7.578;2023-03-04T00:33:45;100591.50;;;1.34;76.39
47883;BME280;37739;50.350;7.578;2023-03-04T00:36:10;100587.69;;;1.29;76.56
47883;BME280;37739;50.350;7.578;2023-03-04T00:38:38;100587.22;;;1.33;76.46
47883;BME280;37739;50.350;7.578;2023-03-04T00:41:03;100591.38;;;1.32;76.26
47883;BME280;37739;50.350;7.578;2023-03-04T00:43:31;100586.19;;;1.31;77.16
47883;BME280;37739;50.350;7.578;2023-03-04T00:45:56;100588.09;;;1.33;76.50
47883;BME280;37739;50.350;7.578;2023-03-04T00:48:22;100584.81;;;1.34;76.91
47883;BME280;37739;50.350;7.578;2023-03-04T00:50:47;100584.94;;;1.36;76.87
47883;BME280;37739;50.350;7.578;2023-03-04T00:53:13;100582.41;;;1.36;76.58
47883;BME280;37739;50.350;7.578;2023-03-04T00:55:38;100589.13;;;1.35;76.50
47883;BME280;37739;50.350;7.578;2023-03-04T00:58:06;100584.81;;;1.34;77.21
47883;BME280;37739;50.350;7.578;2023-03-04T01:00:31;100583.28;;;1.36;76.57
47883;BME280;37739;50.350;7.578;2023-03-04T01:02:57;100582.56;;;1.37;76.25
47883;BME280;37739;50.350;7.578;2023-03-04T01:05:24;100571.56;;;1.37;76.24
47883;BME280;37739;50.350;7.578;2023-03-04T01:07:50;100570.66;;;1.36;76.74
47883;BME280;37739;50.350;7.578;2023-03-04T01:10:15;100572.94;;;1.33;76.37
47883;BME280;37739;50.350;7.578;2023-03-04T01:12:41;100573.69;;;1.32;76.83
47883;BME280;37739;50.350;7.578;2023-03-04T01:15:11;100568.47;;;1.31;76.66
47883;BME280;37739;50.350;7.578;2023-03-04T01:17:36;100573.16;;;1.26;76.31
47883;BME280;37739;50.350;7.578;2023-03-04T01:20:05;100565.56;;;1.26;77.27
47883;BME280;37739;50.350;7.578;2023-03-04T01:22:31;100570.28;;;1.32;76.56
47883;BME280;37739;50.350;7.578;2023-03-04T01:24:56;100567.88;;;1.33;76.33
47883;BME280;37739;50.350;7.578;2023-03-04T01:27:22;100564.34;;;1.31;76.32
47883;BME280;37739;50.350;7.578;2023-03-04T01:29:47;100555.09;;;1.32;76.54
47883;BME280;37739;50.350;7.578;2023-03-04T01:32:13;100554.72;;;1.27;76.97
47883;BME280;37739;50.350;7.578;2023-03-04T01:34:41;100551.91;;;1.24;76.83
47883;BME280;37739;50.350;7.578;2023-03-04T01:37:09;100550.28;;;1.25;76.33
47883;BME280;37739;50.350;7.578;2023-03-04T01:39:37;100539.91;;;1.22;76.79
47883;BME280;37739;50.350;7.578;2023-03-04T01:42:05;100542.69;;;1.25;76.37
47883;BME280;37739;50.350;7.578;2023-03-04T01:44:31;100541.06;;;1.25;76.29
47883;BME280;37739;50.350;7.578;2023-03-04T01:46:56;100536.63;;;1.23;76.95
47883;BME280;37739;50.350;7.578;2023-03-04T01:49:25;100533.22;;;1.22;77.36
47883;BME280;37739;50.350;7.578;2023-03-04T01:51:56;100535.59;;;1.21;76.63
47883;BME280;37739;50.350;7.578;2023-03-04T01:54:22;100533.22;;;1.22;76.76
47883;BME280;37739;50.350;7.578;2023-03-04T01:56:52;100528.50;;;1.16;76.91
47883;BME280;37739;50.350;7.578;2023-03-04T01:59:25;100525.13;;;1.16;76.75
47883;BME280;37739;50.350;7.578;2023-03-04T02:01:56;100514.63;;;1.22;77.07
47883;BME280;37739;50.350;7.578;2023-03-04T02:04:24;100521.31;;;1.21;77.16
47883;BME280;37739;50.350;7.578;2023-03-04T02:06:55;100515.38;;;1.21;77.15
47883;BME280;37739;50.350;7.578;2023-03-04T02:09:24;100516.16;;;1.20;77.04
47883;BME280;37739;50.350;7.578;2023-03-04T02:11:52;100510.31;;;1.21;77.18
47883;BME280;37739;50.350;7.578;2023-03-04T02:14:18;100517.41;;;1.25;77.21
47883;BME280;37739;50.350;7.578;2023-03-04T02:16:44;100509.22;;;1.27;77.55
47883;BME280;37739;50.350;7.578;2023-03-04T02:19:43;100502.53;;;1.28;77.12
47883;BME280;37739;50.350;7.578;2023-03-04T02:22:16;100505.78;;;1.27;77.09
47883;BME280;37739;50.350;7.578;2023-03-04T02:24:47;100511.09;;;1.20;77.96
47883;BME280;37739;50.350;7.578;2023-03-04T02:27:19;100508.94;;;1.14;78.09
47883;BME280;37739;50.350;7.578;2023-03-04T02:29:44;100507.31;;;1.25;78.16
47883;BME280;37739;50.350;7.578;2023-03-04T02:32:11;100506.28;;;1.23;77.37
47883;BME280;37739;50.350;7.578;2023-03-04T02:34:45;100508.16;;;1.15;77.98
47883;BME280;37739;50.350;7.578;2023-03-04T02:37:11;100506.56;;;1.26;78.12
47883;BME280;37739;50.350;7.578;2023-03-04T02:39:42;100510.47;;;1.32;78.47
47883;BME280;37739;50.350;7.578;2023-03-04T02:42:08;100498.34;;;1.28;78.10
47883;BME280;37739;50.350;7.578;2023-03-04T02:44:36;100500.13;;;1.29;77.96
47883;BME280;37739;50.350;7.578;2023-03-04T02:47:06;100503.41;;;1.28;77.76
47883;BME280;37739;50.350;7.578;2023-03-04T02:49:33;100496.94;;;1.22;78.19
47883;BME280;37739;50.350;7.578;2023-03-04T02:54:27;100495.81;;;1.28;77.70
47883;BME280;37739;50.350;7.578;2023-03-04T02:56:58;100497.84;;;1.32;78.33
47883;BME280;37739;50.350;7.578;2023-03-04T02:59:28;100497.19;;;1.25;78.55
47883;BME280;37739;50.350;7.578;2023-03-04T03:01:56;100501.50;;;1.36;77.66
47883;BME280;37739;50.350;7.578;2023-03-04T03:04:24;100499.13;;;1.37;77.36
47883;BME280;37739;50.350;7.578;2023-03-04T03:06:52;100500.88;;;1.38;77.38
47883;BME280;37739;50.350;7.578;2023-03-04T03:09:18;100508.59;;;1.40;77.26
47883;BME280;37739;50.350;7.578;2023-03-04T03:11:46;100506.97;;;1.41;77.17
47883;BME280;37739;50.350;7.578;2023-03-04T03:14:13;100493.28;;;1.38;76.96
47883;BME280;37739;50.350;7.578;2023-03-04T03:16:39;100490.75;;;1.38;77.40
47883;BME280;37739;50.350;7.578;2023-03-04T03:19:09;100493.56;;;1.42;77.42
47883;BME280;37739;50.350;7.578;2023-03-04T03:21:37;100489.53;;;1.44;76.73
47883;BME280;37739;50.350;7.578;2023-03-04T03:24:05;100480.28;;;1.44;77.82
47883;BME280;37739;50.350;7.578;2023-03-04T03:26:30;100494.97;;;1.48;77.09
47883;BME280;37739;50.350;7.578;2023-03-04T03:28:55;100493.06;;;1.46;77.24
47883;BME280;37739;50.350;7.578;2023-03-04T03:31:21;100488.13;;;1.47;76.93
47883;BME280;37739;50.350;7.578;2023-03-04T03:33:49;100491.31;;;1.45;77.69
47883;BME280;37739;50.350;7.578;2023-03-04T03:36:16;100489.16;;;1.39;78.43
47883;BME280;37739;50.350;7.578;2023-03-04T03:38:41;100486.13;;;1.43;77.69
47883;BME280;37739;50.350;7.578;2023-03-04T03:41:11;100488.13;;;1.47;77.05
47883;BME280;37739;50.350;7.578;2023-03-04T03:43:36;100480.69;;;1.49;77.49
47883;BME280;37739;50.350;7.578;2023-03-04T03:46:02;100479.31;;;1.52;77.11
47883;BME280;37739;50.350;7.578;2023-03-04T03:48:27;100481.19;;;1.55;77.62
47883;BME280;37739;50.350;7.578;2023-03-04T03:50:52;100483.84;;;1.56;77.25
47883;BME280;37739;50.350;7.578;2023-03-04T03:53:18;100486.53;;;1.58;77.48
47883;BME280;37739;50.350;7.578;2023-03-04T03:55:43;100489.06;;;1.58;78.07
47883;BME280;37739;50.350;7.578;2023-03-04T03:58:08;100488.38;;;1.40;78.25
47883;BME280;37739;50.350;7.578;2023-03-04T04:00:33;100473.34;;;1.42;78.71
47883;BME280;37739;50.350;7.578;2023-03-04T04:03:04;100478.16;;;1.49;78.76
47883;BME280;37739;50.350;7.578;2023-03-04T04:05:29;100481.28;;;1.46;78.71
47883;BME280;37739;50.350;7.578;2023-03-04T04:07:55;100481.53;;;1.29;79.60
47883;BME280;37739;50.350;7.578;2023-03-04T04:10:22;100475.22;;;1.24;79.79
47883;BME280;37739;50.350;7.578;2023-03-04T04:12:48;100473.84;;;1.27;79.52
47883;BME280;37739;50.350;7.578;2023-03-04T04:15:13;100467.78;;;1.46;79.25
47883;BME280;37739;50.350;7.578;2023-03-04T04:17:38;100474.47;;;1.55;78.99
47883;BME280;37739;50.350;7.578;2023-03-04T04:20:06;100466.38;;;1.60;78.81
47883;BME280;37739;50.350;7.578;2023-03-04T04:22:34;100468.41;;;1.53;79.08
47883;BME280;37739;50.350;7.578;2023-03-04T04:24:59;100465.75;;;1.52;79.06
47883;BME280;37739;50.350;7.578;2023-03-04T04:27:25;100465.00;;;1.63;78.60
47883;BME280;37739;50.350;7.578;2023-03-04T04:29:50;100462.59;;;1.65;79.82
47883;BME280;37739;50.350;7.578;2023-03-04T04:32:17;100458.44;;;1.45;80.16
47883;BME280;37739;50.350;7.578;2023-03-04T04:34:47;100454.25;;;1.45;80.31
47883;BME280;37739;50.350;7.578;2023-03-04T04:37:12;100452.50;;;1.54;79.77
47883;BME280;37739;50.350;7.578;2023-03-04T04:39:40;100452.63;;;1.56;80.03
47883;BME280;37739;50.350;7.578;2023-03-04T04:42:05;100453.38;;;1.55;80.42
47883;BME280;37739;50.350;7.578;2023-03-04T04:44:32;100452.34;;;1.63;80.07
47883;BME280;37739;50.350;7.578;2023-03-04T04:47:03;100447.06;;;1.70;79.38
47883;BME280;37739;50.350;7.578;2023-03-04T04:49:31;100444.41;;;1.79;79.70
47883;BME280;37739;50.350;7.578;2023-03-04T04:51:59;100453.63;;;1.79;79.39
47883;BME280;37739;50.350;7.578;2023-03-04T04:54:27;100444.41;;;1.79;79.44
47883;BME280;37739;50.350;7.578;2023-03-04T04:56:52;100456.03;;;1.67;79.49
47883;BME280;37739;50.350;7.578;2023-03-04T04:59:18;100448.94;;;1.73;79.66
47883;BME280;37739;50.350;7.578;2023-03-04T05:01:45;100446.81;;;1.77;79.79
47883;BME280;37739;50.350;7.578;2023-03-04T05:04:11;100443.50;;;1.79;79.29
47883;BME280;37739;50.350;7.578;2023-03-04T05:06:36;100448.69;;;1.80;79.19
47883;BME280;37739;50.350;7.578;2023-03-04T05:09:02;100449.47;;;1.79;79.44
47883;BME280;37739;50.350;7.578;2023-03-04T05:11:28;100452.75;;;1.78;79.10
47883;BME280;37739;50.350;7.578;2023-03-04T05:13:56;100454.25;;;1.76;79.00
47883;BME280;37739;50.350;7.578;2023-03-04T05:16:21;100444.00;;;1.85;79.16
47883;BME280;37739;50.350;7.578;2023-03-04T05:18:49;100447.06;;;1.91;79.29
47883;BME280;37739;50.350;7.578;2023-03-04T05:21:14;100438.06;;;1.94;79.41
47883;BME280;37739;50.350;7.578;2023-03-04T05:23:41;100456.91;;;1.98;78.91
47883;BME280;37739;50.350;7.578;2023-03-04T05:26:08;100443.50;;;1.99;79.19
47883;BME280;37739;50.350;7.578;2023-03-04T05:28:37;100446.16;;;2.01;78.91
47883;BME280;37739;50.350;7.578;2023-03-04T05:31:05;100445.03;;;1.97;79.68
47883;BME280;37739;50.350;7.578;2023-03-04T05:33:30;100442.72;;;2.00;79.84
47883;BME280;37739;50.350;7.578;2023-03-04T05:36:01;100447.28;;;2.04;79.46
47883;BME280;37739;50.350;7.578;2023-03-04T05:38:26;100446.28;;;2.02;79.48
47883;BME280;37739;50.350;7.578;2023-03-04T05:41:12;100445.16;;;1.99;79.85
47883;BME280;37739;50.350;7.578;2023-03-04T05:43:38;100451.09;;;1.89;79.61
47883;BME280;37739;50.350;7.578;2023-03-04T05:46:12;100445.28;;;1.90;80.27
47883;BME280;37739;50.350;7.578;2023-03-04T05:48:38;100441.09;;;2.01;79.33
47883;BME280;37739;50.350;7.578;2023-03-04T05:51:05;100446.91;;;2.00;80.21
47883;BME280;37739;50.350;7.578;2023-03-04T05:53:35;100451.59;;;1.95;80.34
47883;BME280;37739;50.350;7.578;2023-03-04T05:56:09;100444.63;;;2.03;79.98
47883;BME280;37739;50.350;7.578;2023-03-04T05:58:39;100451.72;;;2.07;79.65
47883;BME280;37739;50.350;7.578;2023-03-04T06:01:05;100450.94;;;2.08;79.81
47883;BME280;37739;50.350;7.578;2023-03-04T06:03:30;100460.97;;;2.06;79.15
47883;BME280;37739;50.350;7.578;2023-03-04T06:05:56;100458.53;;;1.98;80.45
47883;BME280;37739;50.350;7.578;2023-03-04T06:08:21;100456.78;;;2.07;80.34
47883;BME280;37739;50.350;7.578;2023-03-04T06:10:47;100458.44;;;2.06;80.00
47883;BME280;37739;50.350;7.578;2023-03-04T06:13:14;100459.94;;;2.04;79.50
47883;BME280;37739;50.350;7.578;2023-03-04T06:15:42;100460.19;;;2.07;80.33
47883;BME280;37739;50.350;7.578;2023-03-04T06:18:07;100470.84;;;1.93;80.19
47883;BME280;37739;50.350;7.578;2023-03-04T06:20:33;100478.28;;;1.91;80.51
47883;BME280;37739;50.350;7.578;2023-03-04T06:22:58;100475.63;;;1.90;79.94
47883;BME280;37739;50.350;7.578;2023-03-04T06:25:24;100476.03;;;1.94;80.06
47883;BME280;37739;50.350;7.578;2023-03-04T06:27:52;100479.41;;;2.05;79.61
47883;BME280;37739;50.350;7.578;2023-03-04T06:30:20;100472.97;;;2.09;79.67
47883;BME280;37739;50.350;7.578;2023-03-04T06:32:53;100475.38;;;1.97;79.81
47883;BME280;37739;50.350;7.578;2023-03-04T06:35:21;100478.53;;;1.84;80.70
47883;BME280;37739;50.350;7.578;2023-03-04T06:37:48;100495.75;;;1.88;81.37
47883;BME280;37739;50.350;7.578;2023-03-04T06:40:14;100493.47;;;1.91;81.35
47883;BME280;37739;50.350;7.578;2023-03-04T06:42:42;100487.16;;;1.96;80.06
47883;BME280;37739;50.350;7.578;2023-03-04T06:45:10;100491.31;;;1.86;80.32
47883;BME280;37739;50.350;7.578;2023-03-04T06:47:35;100496.53;;;1.87;80.92
47883;BME280;37739;50.350;7.578;2023-03-04T06:50:02;100503.09;;;1.85;80.59
47883;BME280;37739;50.350;7.578;2023-03-04T06:52:32;100506.75;;;1.99;80.22
47883;BME280;37739;50.350;7.578;2023-03-04T06:54:59;100501.59;;;1.87;80.37
47883;BME280;37739;50.350;7.578;2023-03-04T06:57:25;100499.16;;;1.99;80.33
47883;BME280;37739;50.350;7.578;2023-03-04T06:59:50;100499.53;;;2.14;80.45
47883;BME280;37739;50.350;7.578;2023-03-04T07:02:15;100502.94;;;2.14;79.67
47883;BME280;37739;50.350;7.578;2023-03-04T07:04:40;100500.19;;;2.01;80.61
47883;BME280;37739;50.350;7.578;2023-03-04T07:07:09;100499.69;;;1.95;81.26
47883;BME280;37739;50.350;7.578;2023-03-04T07:09:37;100502.69;;;2.11;80.85
47883;BME280;37739;50.350;7.578;2023-03-04T07:12:02;100502.31;;;2.17;79.94
47883;BME280;37739;50.350;7.578;2023-03-04T07:14:30;100507.50;;;2.19;79.85
47883;BME280;37739;50.350;7.578;2023-03-04T07:16:56;100514.31;;;2.30;79.90
47883;BME280;37739;50.350;7.578;2023-03-04T07:19:22;100508.47;;;2.31;79.49
47883;BME280;37739;50.350;7.578;2023-03-04T07:21:49;100514.06;;;2.27;79.75
47883;BME280;37739;50.350;7.578;2023-03-04T07:24:15;100521.81;;;2.18;80.44
47883;BME280;37739;50.350;7.578;2023-03-04T07:26:40;100513.56;;;2.31;79.64
47883;BME280;37739;50.350;7.578;2023-03-04T07:29:08;100514.69;;;2.45;78.93
47883;BME280;37739;50.350;7.578;2023-03-04T07:31:35;100512.66;;;2.51;79.07
47883;BME280;37739;50.350;7.578;2023-03-04T07:34:06;100519.84;;;2.57;78.44
47883;BME280;37739;50.350;7.578;2023-03-04T07:36:38;100517.06;;;2.53;78.90
47883;BME280;37739;50.350;7.578;2023-03-04T07:39:04;100526.69;;;2.47;79.17
47883;BME280;37739;50.350;7.578;2023-03-04T07:41:30;100520.88;;;2.48;79.71
47883;BME280;37739;50.350;7.578;2023-03-04T07:43:57;100514.66;;;2.55;79.09
47883;BME280;37739;50.350;7.578;2023-03-04T07:46:25;100514.75;;;2.67;78.90
47883;BME280;37739;50.350;7.578;2023-03-04T07:48:50;100507.66;;;2.63;79.11
47883;BME280;37739;50.350;7.578;2023-03-04T07:51:18;100520.94;;;2.70;79.27
47883;BME280;37739;50.350;7.578;2023-03-04T07:53:47;100524.22;;;2.80;78.57
47883;BME280;37739;50.350;7.578;2023-03-04T07:56:16;100515.59;;;2.78;78.26
47883;BME280;37739;50.350;7.578;2023-03-04T07:58:42;100522.41;;;2.89;78.68
47883;BME280;37739;50.350;7.578;2023-03-04T08:01:13;100529.03;;;2.87;78.40
47883;BME280;37739;50.350;7.578;2023-03-04T08:03:41;100522.81;;;2.83;78.61
47883;BME280;37739;50.350;7.578;2023-03-04T08:06:11;100531.03;;;2.91;77.98
47883;BME280;37739;50.350;7.578;2023-03-04T08:08:37;100530.91;;;2.89;78.32
47883;BME280;37739;50.350;7.578;2023-03-04T08:11:07;100536.38;;;2.84;79.59
47883;BME280;37739;50.350;7.578;2023-03-04T08:13:36;100533.19;;;2.86;79.15
47883;BME280;37739;50.350;7.578;2023-03-04T08:16:02;100537.72;;;2.90;79.02
47883;BME280;37739;50.350;7.578;2023-03-04T08:18:28;100537.38;;;2.86;79.17
47883;BME280;37739;50.350;7.578;2023-03-04T08:20:53;100529.91;;;2.87;79.17
47883;BME280;37739;50.350;7.578;2023-03-04T08:23:19;100533.31;;;2.88;79.48
47883;BME280;37739;50.350;7.578;2023-03-04T08:25:44;100537.84;;;2.92;79.33
47883;BME280;37739;50.350;7.578;2023-03-04T08:28:10;100528.59;;;2.92;79.25
47883;BME280;37739;50.350;7.578;2023-03-04T08:30:38;100544.53;;;3.02;78.48
47883;BME280;37739;50.350;7.578;2023-03-04T08:33:04;100536.91;;;3.02;78.81
47883;BME280;37739;50.350;7.578;2023-03-04T08:35:30;100541.59;;;3.07;78.91
47883;BME280;37739;50.350;7.578;2023-03-04T08:37:57;100539.94;;;3.08;78.82
47883;BME280;37739;50.350;7.578;2023-03-04T08:40:23;100533.97;;;3.07;78.87
47883;BME280;37739;50.350;7.578;2023-03-04T08:42:50;100543.72;;;3.13;79.32
47883;BME280;37739;50.350;7.578;2023-03-04T08:45:16;100539.63;;;3.25;78.46
47883;BME280;37739;50.350;7.578;2023-03-04T08:47:41;100539.13;;;3.19;78.88
47883;BME280;37739;50.350;7.578;2023-03-04T08:50:09;100541.78;;;3.21;79.06
47883;BME280;37739;50.350;7.578;2023-03-04T08:52:35;100542.31;;;3.17;78.39
47883;BME280;37739;50.350;7.578;2023-03-04T08:55:03;100538.78;;;3.14;79.02
47883;BME280;37739;50.350;7.578;2023-03-04T08:57:28;100536.72;;;3.21;78.80
47883;BME280;37739;50.350;7.578;2023-03-04T08:59:56;100545.31;;;3.23;78.60
47883;BME280;37739;50.350;7.578;2023-03-04T09:02:21;100536.72;;;3.21;78.99
47883;BME280;37739;50.350;7.578;2023-03-04T09:04:46;100541.25;;;3.25;78.89
47883;BME280;37739;50.350;7.578;2023-03-04T09:07:12;100537.84;;;3.24;79.06
47883;BME280;37739;50.350;7.578;2023-03-04T09:09:38;100541.25;;;3.25;79.38
47883;BME280;37739;50.350;7.578;2023-03-04T09:12:04;100539.09;;;3.29;78.78
47883;BME280;37739;50.350;7.578;2023-03-04T09:14:29;100540.56;;;3.38;79.01
47883;BME280;37739;50.350;7.578;2023-03-04T09:16:54;100548.31;;;3.39;78.83
47883;BME280;37739;50.350;7.578;2023-03-04T09:19:22;100542.31;;;3.39;78.38
47883;BME280;37739;50.350;7.578;2023-03-04T09:21:48;100542.69;;;3.43;78.42
47883;BME280;37739;50.350;7.578;2023-03-04T09:24:13;100544.44;;;3.44;78.73
47883;BME280;37739;50.350;7.578;2023-03-04T09:26:39;100542.16;;;3.47;78.54
47883;BME280;37739;50.350;7.578;2023-03-04T09:29:04;100536.78;;;3.54;78.30
47883;BME280;37739;50.350;7.578;2023-03-04T09:31:30;100541.03;;;3.44;78.20
47883;BME280;37739;50.350;7.578;2023-03-04T09:33:59;100546.47;;;3.48;78.47
47883;BME280;37739;50.350;7.578;2023-03-04T09:36:24;100543.03;;;3.48;78.51
47883;BME280;37739;50.350;7.578;2023-03-04T09:38:50;100542.91;;;3.46;78.44
47883;BME280;37739;50.350;7.578;2023-03-04T09:41:21;100543.69;;;3.45;78.04
47883;BME280;37739;50.350;7.578;2023-03-04T09:43:48;100547.22;;;3.47;78.68
47883;BME280;37739;50.350;7.578;2023-03-04T09:46:18;100542.28;;;3.49;78.02
47883;BME280;37739;50.350;7.578;2023-03-04T09:48:49;100550.47;;;3.57;78.25
47883;BME280;37739;50.350;7.578;2023-03-04T09:54:09;100540.66;;;3.61;77.75
47883;BME280;37739;50.350;7.578;2023-03-04T09:56:38;100544.22;;;3.63;77.49
47883;BME280;37739;50.350;7.578;2023-03-04T09:59:13;100542.78;;;3.67;77.50
47883;BME280;37739;50.350;7.578;2023-03-04T10:01:52;100537.59;;;3.65;77.86
47883;BME280;37739;50.350;7.578;2023-03-04T10:04:32;100530.56;;;3.73;77.82
47883;BME280;37739;50.350;7.578;2023-03-04T10:07:00;100528.94;;;3.73;77.34
47883;BME280;37739;50.350;7.578;2023-03-04T10:09:42;100531.25;;;3.82;77.22
47883;BME280;37739;50.350;7.578;2023-03-04T10:12:15;100531.69;;;3.77;77.30
47883;BME280;37739;50.350;7.578;2023-03-04T10:14:51;100526.84;;;3.80;77.71
47883;BME280;37739;50.350;7.578;2023-03-04T10:17:27;100524.75;;;3.74;77.27
47883;BME280;37739;50.350;7.578;2023-03-04T10:19:58;100527.84;;;3.82;77.24
47883;BME280;37739;50.350;7.578;2023-03-04T10:27:54;100521.81;;;3.91;77.17
47883;BME280;37739;50.350;7.578;2023-03-04T10:33:18;100514.06;;;3.90;77.07
47883;BME280;37739;50.350;7.578;2023-03-04T10:35:48;100515.50;;;3.86;77.19
47883;BME280;37739;50.350;7.578;2023-03-04T10:38:18;100515.16;;;3.82;77.02
47883;BME280;37739;50.350;7.578;2023-03-04T10:40:44;100515.28;;;3.83;77.22
47883;BME280;37739;50.350;7.578;2023-03-04T10:43:20;100509.44;;;3.96;77.41
47883;BME280;37739;50.350;7.578;2023-03-04T10:45:46;100514.53;;;4.08;77.37
47883;BME280;37739;50.350;7.578;2023-03-04T10:48:27;100511.84;;;4.28;76.23
47883;BME280;37739;50.350;7.578;2023-03-04T10:50:53;100510.66;;;4.35;76.26
47883;BME280;37739;50.350;7.578;2023-03-04T10:53:31;100517.69;;;4.27;76.11
47883;BME280;37739;50.350;7.578;2023-03-04T10:56:00;100514.81;;;4.23;76.30
47883;BME280;37739;50.350;7.578;2023-03-04T10:58:26;100513.59;;;4.18;75.51
47883;BME280;37739;50.350;7.578;2023-03-04T11:01:04;100512.25;;;4.11;75.80
47883;BME280;37739;50.350;7.578;2023-03-04T11:03:35;100509.81;;;4.12;76.06
47883;BME280;37739;50.350;7.578;2023-03-04T11:06:10;100515.69;;;4.23;75.95
47883;BME280;37739;50.350;7.578;2023-03-04T11:08:38;100509.28;;;4.28;75.73
47883;BME280;37739;50.350;7.578;2023-03-04T11:11:20;100507.53;;;4.27;75.98
47883;BME280;37739;50.350;7.578;2023-03-04T11:13:51;100502.47;;;4.39;75.12
47883;BME280;37739;50.350;7.578;2023-03-04T11:16:30;100500.13;;;4.42;75.52
47883;BME280;37739;50.350;7.578;2023-03-04T11:19:19;100499.94;;;4.39;74.85
47883;BME280;37739;50.350;7.578;2023-03-04T11:21:48;100497.28;;;4.49;75.02
47883;BME280;37739;50.350;7.578;2023-03-04T11:24:19;100493.41;;;4.66;74.09
47883;BME280;37739;50.350;7.578;2023-03-04T11:27:17;100485.44;;;4.74;73.87
47883;BME280;37739;50.350;7.578;2023-03-04T11:29:54;100489.63;;;4.97;73.27
47883;BME280;37739;50.350;7.578;2023-03-04T11:32:29;100488.94;;;4.99;73.36
47883;BME280;37739;50.350;7.578;2023-03-04T11:37:50;100478.44;;;5.06;72.85
47883;BME280;37739;50.350;7.578;2023-03-04T11:40:28;100477.59;;;5.19;72.35
47883;BME280;37739;50.350;7.578;2023-03-04T11:43:02;100474.13;;;5.30;72.21
47883;BME280;37739;50.350;7.578;2023-03-04T11:53:44;100458.94;;;5.07;71.20
47883;BME280;37739;50.350;7.578;2023-03-04T11:56:25;100459.38;;;5.13;71.07
47883;BME280;37739;50.350;7.578;2023-03-04T12:04:58;100453.59;;;5.16;71.70
47883;BME280;37739;50.350;7.578;2023-03-04T12:07:45;100445.28;;;5.30;71.68
47883;BME280;37739;50.350;7.578;2023-03-04T12:10:27;100439.63;;;5.34;71.48
47883;BME280;37739;50.350;7.578;2023-03-04T12:13:17;100441.16;;;5.32;71.16
47883;BME280;37739;50.350;7.578;2023-03-04T12:18:39;100433.38;;;5.17;71.41
47883;BME280;37739;50.350;7.578;2023-03-04T12:29:36;100420.66;;;5.42;71.27
47883;BME280;37739;50.350;7.578;2023-03-04T12:32:33;100417.13;;;5.40;71.04
47883;BME280;37739;50.350;7.578;2023-03-04T12:40:37;100408.50;;;5.38;70.73
47883;BME280;37739;50.350;7.578;2023-03-04T12:43:13;100404.41;;;5.40;71.13
47883;BME280;37739;50.350;7.578;2023-03-04T12:46:03;100401.78;;;5.52;71.20
47883;BME280;37739;50.350;7.578;2023-03-04T12:48:36;100394.84;;;5.49;70.27
47883;BME280;37739;50.350;7.578;2023-03-04T12:51:28;100390.31;;;5.45;70.36
47883;BME280;37739;50.350;7.578;2023-03-04T12:57:00;100384.56;;;5.48;70.21
47883;BME280;37739;50.350;7.578;2023-03-04T12:59:33;100379.19;;;5.57;69.93
47883;BME280;37739;50.350;7.578;2023-03-04T13:05:28;100378.28;;;5.56;70.04
47883;BME280;37739;50.350;7.578;2023-03-04T13:08:12;100373.41;;;5.59;69.87
47883;BME280;37739;50.350;7.578;2023-03-04T13:10:40;100373.81;;;5.65;69.96
47883;BME280;37739;50.350;7.578;2023-03-04T13:16:05;100374.81;;;5.67;69.94
47883;BME280;37739;50.350;7.578;2023-03-04T13:18:37;100366.19;;;5.65;70.48
47883;BME280;37739;50.350;7.578;2023-03-04T13:21:20;100363.84;;;5.68;70.69
47883;BME280;37739;50.350;7.578;2023-03-04T13:23:48;100365.56;;;5.56;71.27
47883;BME280;37739;50.350;7.578;2023-03-04T13:26:28;100368.41;;;5.47;71.82
47883;BME280;37739;50.350;7.578;2023-03-04T13:34:51;100361.41;;;5.70;71.85
47883;BME280;37739;50.350;7.578;2023-03-04T13:37:30;100360.94;;;5.76;71.27
47883;BME280;37739;50.350;7.578;2023-03-04T13:42:48;100357.47;;;5.62;71.38
47883;BME280;37739;50.350;7.578;2023-03-04T13:45:33;100352.28;;;5.47;71.54
47883;BME280;37739;50.350;7.578;2023-03-04T13:48:01;100353.53;;;5.54;71.64
47883;BME280;37739;50.350;7.578;2023-03-04T13:50:44;100351.56;;;5.49;71.50
47883;BME280;37739;50.350;7.578;2023-03-04T13:56:18;100347.88;;;5.58;71.63
47883;BME280;37739;50.350;7.578;2023-03-04T13:58:47;100344.22;;;5.54;71.98
47883;BME280;37739;50.350;7.578;2023-03-04T14:01:27;100348.25;;;5.64;71.86
47883;BME280;37739;50.350;7.578;2023-03-04T14:03:56;100339.16;;;5.67;71.93
47883;BME280;37739;50.350;7.578;2023-03-04T14:06:27;100337.69;;;5.71;71.80
47883;BME280;37739;50.350;7.578;2023-03-04T14:08:56;100338.41;;;5.68;71.50
47883;BME280;37739;50.350;7.578;2023-03-04T14:11:26;100338.41;;;5.68;71.54
47883;BME280;37739;50.350;7.578;2023-03-04T14:13:56;100336.63;;;5.67;71.78
47883;BME280;37739;50.350;7.578;2023-03-04T14:16:27;100337.41;;;5.66;71.84
47883;BME280;37739;50.350;7.578;2023-03-04T14:19:04;100336.81;;;5.70;71.76